sensor_id;sensor_type;location;lat;lon;timestamp;P1;durP1;ratioP1;P2;durP2;ratioP2
19814;SDS011;10067;53.092;8.800;2023-07-29T00:00:36;22.58;;;18.40;;
19814;SDS011;10067;53.092;8.800;2023-07-29T00:03:03;26.73;;;19.08;;
19814;SDS011;10067;53.092;8.800;2023-07-29T00:05:29;24.50;;;18.55;;
19814;SDS011;10067;53.092;8.800;2023-07-29T00:07:56;26.98;;;18.55;;
19814;SDS011;10067;53.092;8.800;2023-07-29T00:10:22;26.77;;;18.35;;
19814;SDS011;10067;53.092;8.800;2023-07-29T00:12:50;23.20;;;17.55;;
19814;SDS011;10067;53.092;8.800;2023-07-29T00:15:16;24.38;;;17.88;;
19814;SDS011;10067;53.092;8.800;2023-07-29T00:17:43;28.10;;;18.90;;
19814;SDS011;10067;53.092;8.800;2023-07-29T00:20:09;23.27;;;17.48;;
19814;SDS011;10067;53.092;8.800;2023-07-29T00:22:36;22.67;;;17.55;;
19814;SDS011;10067;53.092;8.800;2023-07-29T00:25:02;23.60;;;17.08;;
19814;SDS011;10067;53.092;8.800;2023-07-29T00:27:29;25.60;;;18.70;;
19814;SDS011;10067;53.092;8.800;2023-07-29T00:29:56;26.52;;;19.42;;
19814;SDS011;10067;53.092;8.800;2023-07-29T00:32:23;31.48;;;22.27;;
19814;SDS011;10067;53.092;8.800;2023-07-29T00:34:49;28.42;;;21.70;;
19814;SDS011;10067;53.092;8.800;2023-07-29T00:37:15;27.17;;;21.40;;
19814;SDS011;10067;53.092;8.800;2023-07-29T00:39:42;24.38;;;18.98;;
19814;SDS011;10067;53.092;8.800;2023-07-29T00:42:08;30.00;;;19.83;;
19814;SDS011;10067;53.092;8.800;2023-07-29T00:44:35;28.10;;;20.67;;
19814;SDS011;10067;53.092;8.800;2023-07-29T00:47:03;27.65;;;18.73;;
19814;SDS011;10067;53.092;8.800;2023-07-29T00:49:30;28.77;;;19.67;;
19814;SDS011;10067;53.092;8.800;2023-07-29T00:51:57;29.70;;;19.40;;
19814;SDS011;10067;53.092;8.800;2023-07-29T00:54:24;28.00;;;19.45;;
19814;SDS011;10067;53.092;8.800;2023-07-29T00:56:50;26.77;;;19.23;;
19814;SDS011;10067;53.092;8.800;2023-07-29T00:59:17;27.65;;;20.48;;
19814;SDS011;10067;53.092;8.800;2023-07-29T01:01:43;31.05;;;21.27;;
19814;SDS011;10067;53.092;8.800;2023-07-29T01:04:11;37.55;;;22.52;;
19814;SDS011;10067;53.092;8.800;2023-07-29T01:06:39;29.70;;;21.20;;
19814;SDS011;10067;53.092;8.800;2023-07-29T01:09:08;26.42;;;19.73;;
19814;SDS011;10067;53.092;8.800;2023-07-29T01:11:38;29.85;;;21.63;;
19814;SDS011;10067;53.092;8.800;2023-07-29T01:14:24;29.45;;;20.25;;
19814;SDS011;10067;53.092;8.800;2023-07-29T01:16:53;39.08;;;23.10;;
19814;SDS011;10067;53.092;8.800;2023-07-29T01:19:26;29.63;;;21.58;;
19814;SDS011;10067;53.092;8.800;2023-07-29T01:22:03;29.17;;;21.98;;
19814;SDS011;10067;53.092;8.800;2023-07-29T01:24:31;34.42;;;22.63;;
19814;SDS011;10067;53.092;8.800;2023-07-29T01:26:58;35.83;;;24.60;;
19814;SDS011;10067;53.092;8.800;2023-07-29T01:29:26;30.55;;;23.33;;
19814;SDS011;10067;53.092;8.800;2023-07-29T01:31:53;34.38;;;24.40;;
19814;SDS011;10067;53.092;8.800;2023-07-29T01:34:22;32.45;;;24.02;;
19814;SDS011;10067;53.092;8.800;2023-07-29T01:36:50;32.85;;;23.23;;
19814;SDS011;10067;53.092;8.800;2023-07-29T01:39:17;35.40;;;23.05;;
19814;SDS011;10067;53.092;8.800;2023-07-29T01:41:48;34.15;;;23.80;;
19814;SDS011;10067;53.092;8.800;2023-07-29T01:44:16;35.58;;;24.23;;
19814;SDS011;10067;53.092;8.800;2023-07-29T01:46:43;39.08;;;24.95;;
19814;SDS011;10067;53.092;8.800;2023-07-29T01:49:10;37.50;;;24.38;;
19814;SDS011;10067;53.092;8.800;2023-07-29T01:51:36;37.75;;;25.15;;
19814;SDS011;10067;53.092;8.800;2023-07-29T01:54:03;41.80;;;25.80;;
19814;SDS011;10067;53.092;8.800;2023-07-29T01:56:29;41.75;;;24.67;;
19814;SDS011;10067;53.092;8.800;2023-07-29T01:58:57;38.17;;;24.83;;
19814;SDS011;10067;53.092;8.800;2023-07-29T02:01:23;34.20;;;25.75;;
19814;SDS011;10067;53.092;8.800;2023-07-29T02:03:50;36.40;;;25.92;;
19814;SDS011;10067;53.092;8.800;2023-07-29T02:06:20;33.53;;;25.27;;
19814;SDS011;10067;53.092;8.800;2023-07-29T02:08:46;37.45;;;26.00;;
19814;SDS011;10067;53.092;8.800;2023-07-29T02:11:12;35.50;;;25.40;;
19814;SDS011;10067;53.092;8.800;2023-07-29T02:13:39;44.92;;;28.25;;
19814;SDS011;10067;53.092;8.800;2023-07-29T02:16:06;40.38;;;28.13;;
19814;SDS011;10067;53.092;8.800;2023-07-29T02:18:33;40.75;;;28.55;;
19814;SDS011;10067;53.092;8.800;2023-07-29T02:20:59;38.25;;;27.77;;
19814;SDS011;10067;53.092;8.800;2023-07-29T02:23:25;38.45;;;26.88;;
19814;SDS011;10067;53.092;8.800;2023-07-29T02:25:52;37.03;;;25.38;;
19814;SDS011;10067;53.092;8.800;2023-07-29T02:28:18;34.50;;;25.60;;
19814;SDS011;10067;53.092;8.800;2023-07-29T02:30:45;36.10;;;26.55;;
19814;SDS011;10067;53.092;8.800;2023-07-29T02:33:12;47.75;;;27.38;;
19814;SDS011;10067;53.092;8.800;2023-07-29T02:35:39;37.05;;;26.83;;
19814;SDS011;10067;53.092;8.800;2023-07-29T02:38:05;40.95;;;26.42;;
19814;SDS011;10067;53.092;8.800;2023-07-29T02:40:31;36.97;;;26.48;;
19814;SDS011;10067;53.092;8.800;2023-07-29T02:42:58;43.45;;;27.42;;
19814;SDS011;10067;53.092;8.800;2023-07-29T02:45:24;42.00;;;28.23;;
19814;SDS011;10067;53.092;8.800;2023-07-29T02:47:50;40.65;;;27.58;;
19814;SDS011;10067;53.092;8.800;2023-07-29T02:50:19;43.03;;;27.65;;
19814;SDS011;10067;53.092;8.800;2023-07-29T02:52:46;40.15;;;28.92;;
19814;SDS011;10067;53.092;8.800;2023-07-29T02:55:12;44.35;;;28.23;;
19814;SDS011;10067;53.092;8.800;2023-07-29T02:57:38;43.15;;;29.08;;
19814;SDS011;10067;53.092;8.800;2023-07-29T03:00:05;44.15;;;29.90;;
19814;SDS011;10067;53.092;8.800;2023-07-29T03:02:32;41.67;;;27.17;;
19814;SDS011;10067;53.092;8.800;2023-07-29T03:04:58;45.30;;;28.10;;
19814;SDS011;10067;53.092;8.800;2023-07-29T03:07:26;43.05;;;29.38;;
19814;SDS011;10067;53.092;8.800;2023-07-29T03:09:52;44.55;;;30.92;;
19814;SDS011;10067;53.092;8.800;2023-07-29T03:12:19;42.80;;;29.30;;
19814;SDS011;10067;53.092;8.800;2023-07-29T03:14:47;43.22;;;29.33;;
19814;SDS011;10067;53.092;8.800;2023-07-29T03:17:13;50.65;;;29.40;;
19814;SDS011;10067;53.092;8.800;2023-07-29T03:19:40;51.72;;;30.83;;
19814;SDS011;10067;53.092;8.800;2023-07-29T03:22:06;47.58;;;31.67;;
19814;SDS011;10067;53.092;8.800;2023-07-29T03:24:34;51.65;;;32.05;;
19814;SDS011;10067;53.092;8.800;2023-07-29T03:27:01;42.03;;;29.20;;
19814;SDS011;10067;53.092;8.800;2023-07-29T03:29:28;45.45;;;31.50;;
19814;SDS011;10067;53.092;8.800;2023-07-29T03:31:54;44.75;;;29.85;;
19814;SDS011;10067;53.092;8.800;2023-07-29T03:34:21;44.10;;;30.85;;
19814;SDS011;10067;53.092;8.800;2023-07-29T03:36:47;47.90;;;30.80;;
19814;SDS011;10067;53.092;8.800;2023-07-29T03:39:15;45.88;;;30.80;;
19814;SDS011;10067;53.092;8.800;2023-07-29T03:41:43;45.58;;;28.77;;
19814;SDS011;10067;53.092;8.800;2023-07-29T03:44:09;44.55;;;29.50;;
19814;SDS011;10067;53.092;8.800;2023-07-29T03:46:36;42.22;;;29.65;;
19814;SDS011;10067;53.092;8.800;2023-07-29T03:49:02;43.05;;;29.88;;
19814;SDS011;10067;53.092;8.800;2023-07-29T03:51:29;43.63;;;29.58;;
19814;SDS011;10067;53.092;8.800;2023-07-29T03:53:55;41.80;;;29.65;;
19814;SDS011;10067;53.092;8.800;2023-07-29T03:56:21;40.10;;;28.40;;
19814;SDS011;10067;53.092;8.800;2023-07-29T03:58:49;47.88;;;29.52;;
19814;SDS011;10067;53.092;8.800;2023-07-29T04:01:15;50.35;;;34.15;;
19814;SDS011;10067;53.092;8.800;2023-07-29T04:03:42;51.42;;;30.65;;
19814;SDS011;10067;53.092;8.800;2023-07-29T04:06:08;53.30;;;32.17;;
19814;SDS011;10067;53.092;8.800;2023-07-29T04:08:35;42.63;;;29.10;;
19814;SDS011;10067;53.092;8.800;2023-07-29T04:11:01;44.42;;;28.70;;
19814;SDS011;10067;53.092;8.800;2023-07-29T04:13:27;43.85;;;28.88;;
19814;SDS011;10067;53.092;8.800;2023-07-29T04:15:55;40.58;;;30.13;;
19814;SDS011;10067;53.092;8.800;2023-07-29T04:18:21;42.95;;;28.92;;
19814;SDS011;10067;53.092;8.800;2023-07-29T04:20:48;42.92;;;29.00;;
19814;SDS011;10067;53.092;8.800;2023-07-29T04:23:14;43.65;;;29.00;;
19814;SDS011;10067;53.092;8.800;2023-07-29T04:25:40;45.22;;;30.83;;
19814;SDS011;10067;53.092;8.800;2023-07-29T04:28:07;38.30;;;28.50;;
19814;SDS011;10067;53.092;8.800;2023-07-29T04:30:33;43.55;;;29.90;;
19814;SDS011;10067;53.092;8.800;2023-07-29T04:33:01;42.35;;;28.88;;
19814;SDS011;10067;53.092;8.800;2023-07-29T04:35:27;40.10;;;27.63;;
19814;SDS011;10067;53.092;8.800;2023-07-29T04:37:54;44.83;;;28.45;;
19814;SDS011;10067;53.092;8.800;2023-07-29T04:40:20;43.05;;;28.17;;
19814;SDS011;10067;53.092;8.800;2023-07-29T04:42:47;36.42;;;25.77;;
19814;SDS011;10067;53.092;8.800;2023-07-29T04:45:14;34.70;;;25.75;;
19814;SDS011;10067;53.092;8.800;2023-07-29T04:47:41;33.92;;;24.25;;
19814;SDS011;10067;53.092;8.800;2023-07-29T04:50:09;34.10;;;24.67;;
19814;SDS011;10067;53.092;8.800;2023-07-29T04:52:35;36.50;;;24.80;;
19814;SDS011;10067;53.092;8.800;2023-07-29T04:55:02;31.70;;;22.75;;
19814;SDS011;10067;53.092;8.800;2023-07-29T04:57:28;30.88;;;22.83;;
19814;SDS011;10067;53.092;8.800;2023-07-29T04:59:55;32.55;;;23.23;;
19814;SDS011;10067;53.092;8.800;2023-07-29T05:02:21;35.28;;;25.00;;
19814;SDS011;10067;53.092;8.800;2023-07-29T05:04:47;35.60;;;23.98;;
19814;SDS011;10067;53.092;8.800;2023-07-29T05:07:15;32.53;;;22.70;;
19814;SDS011;10067;53.092;8.800;2023-07-29T05:09:41;30.75;;;23.17;;
19814;SDS011;10067;53.092;8.800;2023-07-29T05:12:08;29.75;;;21.38;;
19814;SDS011;10067;53.092;8.800;2023-07-29T05:14:34;30.60;;;22.33;;
19814;SDS011;10067;53.092;8.800;2023-07-29T05:17:00;31.63;;;21.90;;
19814;SDS011;10067;53.092;8.800;2023-07-29T05:19:27;28.90;;;22.05;;
19814;SDS011;10067;53.092;8.800;2023-07-29T05:21:53;28.38;;;19.92;;
19814;SDS011;10067;53.092;8.800;2023-07-29T05:24:21;28.65;;;20.23;;
19814;SDS011;10067;53.092;8.800;2023-07-29T05:26:48;28.70;;;20.42;;
19814;SDS011;10067;53.092;8.800;2023-07-29T05:29:14;29.58;;;20.33;;
19814;SDS011;10067;53.092;8.800;2023-07-29T05:31:40;25.60;;;18.20;;
19814;SDS011;10067;53.092;8.800;2023-07-29T05:34:07;25.60;;;19.67;;
19814;SDS011;10067;53.092;8.800;2023-07-29T05:36:34;26.98;;;19.63;;
19814;SDS011;10067;53.092;8.800;2023-07-29T05:39:00;26.40;;;18.50;;
19814;SDS011;10067;53.092;8.800;2023-07-29T05:41:27;28.10;;;18.83;;
19814;SDS011;10067;53.092;8.800;2023-07-29T05:43:54;24.38;;;17.55;;
19814;SDS011;10067;53.092;8.800;2023-07-29T05:46:20;23.75;;;18.30;;
19814;SDS011;10067;53.092;8.800;2023-07-29T05:48:47;25.10;;;18.38;;
19814;SDS011;10067;53.092;8.800;2023-07-29T05:51:13;26.55;;;19.38;;
19814;SDS011;10067;53.092;8.800;2023-07-29T05:53:39;31.23;;;20.20;;
19814;SDS011;10067;53.092;8.800;2023-07-29T05:56:06;27.50;;;19.80;;
19814;SDS011;10067;53.092;8.800;2023-07-29T05:58:33;23.48;;;18.13;;
19814;SDS011;10067;53.092;8.800;2023-07-29T06:01:00;24.48;;;18.13;;
19814;SDS011;10067;53.092;8.800;2023-07-29T06:03:26;22.48;;;18.60;;
19814;SDS011;10067;53.092;8.800;2023-07-29T06:05:53;22.27;;;17.08;;
19814;SDS011;10067;53.092;8.800;2023-07-29T06:08:19;27.70;;;18.10;;
19814;SDS011;10067;53.092;8.800;2023-07-29T06:10:46;24.08;;;18.80;;
19814;SDS011;10067;53.092;8.800;2023-07-29T06:13:12;24.38;;;17.02;;
19814;SDS011;10067;53.092;8.800;2023-07-29T06:15:40;23.85;;;18.50;;
19814;SDS011;10067;53.092;8.800;2023-07-29T06:18:06;25.73;;;18.58;;
19814;SDS011;10067;53.092;8.800;2023-07-29T06:20:32;20.27;;;17.58;;
19814;SDS011;10067;53.092;8.800;2023-07-29T06:22:59;26.58;;;19.58;;
19814;SDS011;10067;53.092;8.800;2023-07-29T06:25:25;23.02;;;18.92;;
19814;SDS011;10067;53.092;8.800;2023-07-29T06:27:51;23.42;;;19.05;;
19814;SDS011;10067;53.092;8.800;2023-07-29T06:30:18;23.33;;;19.33;;
19814;SDS011;10067;53.092;8.800;2023-07-29T06:32:46;23.63;;;19.20;;
19814;SDS011;10067;53.092;8.800;2023-07-29T06:35:12;25.13;;;19.60;;
19814;SDS011;10067;53.092;8.800;2023-07-29T06:37:38;28.52;;;20.38;;
19814;SDS011;10067;53.092;8.800;2023-07-29T06:40:05;25.88;;;19.52;;
19814;SDS011;10067;53.092;8.800;2023-07-29T06:42:31;27.67;;;19.55;;
19814;SDS011;10067;53.092;8.800;2023-07-29T06:44:58;22.88;;;18.60;;
19814;SDS011;10067;53.092;8.800;2023-07-29T06:47:24;26.58;;;20.13;;
19814;SDS011;10067;53.092;8.800;2023-07-29T06:49:53;26.00;;;20.35;;
19814;SDS011;10067;53.092;8.800;2023-07-29T06:52:19;24.58;;;20.17;;
19814;SDS011;10067;53.092;8.800;2023-07-29T06:54:46;25.20;;;20.88;;
19814;SDS011;10067;53.092;8.800;2023-07-29T06:57:12;23.77;;;20.20;;
19814;SDS011;10067;53.092;8.800;2023-07-29T06:59:38;22.70;;;18.92;;
19814;SDS011;10067;53.092;8.800;2023-07-29T07:02:06;24.42;;;18.42;;
19814;SDS011;10067;53.092;8.800;2023-07-29T07:04:32;24.90;;;19.27;;
19814;SDS011;10067;53.092;8.800;2023-07-29T07:07:00;21.17;;;17.92;;
19814;SDS011;10067;53.092;8.800;2023-07-29T07:09:27;18.65;;;16.60;;
19814;SDS011;10067;53.092;8.800;2023-07-29T07:11:53;23.27;;;18.90;;
19814;SDS011;10067;53.092;8.800;2023-07-29T07:14:19;22.23;;;17.88;;
19814;SDS011;10067;53.092;8.800;2023-07-29T07:16:46;20.75;;;18.08;;
19814;SDS011;10067;53.092;8.800;2023-07-29T07:19:14;19.30;;;16.52;;
19814;SDS011;10067;53.092;8.800;2023-07-29T07:21:41;25.02;;;16.17;;
19814;SDS011;10067;53.092;8.800;2023-07-29T07:24:08;17.35;;;15.40;;
19814;SDS011;10067;53.092;8.800;2023-07-29T07:26:35;21.08;;;16.13;;
19814;SDS011;10067;53.092;8.800;2023-07-29T07:29:01;20.23;;;16.02;;
19814;SDS011;10067;53.092;8.800;2023-07-29T07:31:27;21.95;;;16.15;;
19814;SDS011;10067;53.092;8.800;2023-07-29T07:33:54;16.65;;;14.77;;
19814;SDS011;10067;53.092;8.800;2023-07-29T07:36:20;16.10;;;14.13;;
19814;SDS011;10067;53.092;8.800;2023-07-29T07:38:46;19.58;;;13.80;;
19814;SDS011;10067;53.092;8.800;2023-07-29T07:41:14;16.30;;;13.05;;
19814;SDS011;10067;53.092;8.800;2023-07-29T07:43:40;14.65;;;12.88;;
19814;SDS011;10067;53.092;8.800;2023-07-29T07:46:07;15.25;;;13.57;;
19814;SDS011;10067;53.092;8.800;2023-07-29T07:48:33;15.30;;;13.70;;
19814;SDS011;10067;53.092;8.800;2023-07-29T07:50:59;13.02;;;11.63;;
19814;SDS011;10067;53.092;8.800;2023-07-29T07:53:26;14.25;;;11.05;;
19814;SDS011;10067;53.092;8.800;2023-07-29T07:55:52;16.60;;;11.57;;
19814;SDS011;10067;53.092;8.800;2023-07-29T07:58:20;12.02;;;10.52;;
19814;SDS011;10067;53.092;8.800;2023-07-29T08:00:46;17.10;;;10.48;;
19814;SDS011;10067;53.092;8.800;2023-07-29T08:03:12;14.45;;;9.68;;
19814;SDS011;10067;53.092;8.800;2023-07-29T08:05:39;16.42;;;9.52;;
19814;SDS011;10067;53.092;8.800;2023-07-29T08:08:05;9.38;;;8.25;;
19814;SDS011;10067;53.092;8.800;2023-07-29T08:10:31;13.85;;;7.50;;
19814;SDS011;10067;53.092;8.800;2023-07-29T08:12:58;9.07;;;7.78;;
19814;SDS011;10067;53.092;8.800;2023-07-29T08:15:25;8.43;;;6.32;;
19814;SDS011;10067;53.092;8.800;2023-07-29T08:17:52;6.78;;;5.90;;
19814;SDS011;10067;53.092;8.800;2023-07-29T08:20:18;7.57;;;5.65;;
19814;SDS011;10067;53.092;8.800;2023-07-29T08:22:44;7.53;;;5.90;;
19814;SDS011;10067;53.092;8.800;2023-07-29T08:25:11;5.78;;;4.93;;
19814;SDS011;10067;53.092;8.800;2023-07-29T08:27:37;12.13;;;5.13;;
19814;SDS011;10067;53.092;8.800;2023-07-29T08:30:04;8.95;;;5.47;;
19814;SDS011;10067;53.092;8.800;2023-07-29T08:32:32;4.93;;;4.43;;
19814;SDS011;10067;53.092;8.800;2023-07-29T08:34:58;8.63;;;4.70;;
19814;SDS011;10067;53.092;8.800;2023-07-29T08:37:24;6.15;;;4.03;;
19814;SDS011;10067;53.092;8.800;2023-07-29T08:39:52;7.78;;;4.28;;
19814;SDS011;10067;53.092;8.800;2023-07-29T08:42:19;4.82;;;3.47;;
19814;SDS011;10067;53.092;8.800;2023-07-29T08:44:45;10.05;;;3.67;;
19814;SDS011;10067;53.092;8.800;2023-07-29T08:47:15;4.53;;;3.83;;
19814;SDS011;10067;53.092;8.800;2023-07-29T08:49:43;5.40;;;3.88;;
19814;SDS011;10067;53.092;8.800;2023-07-29T08:52:09;6.38;;;4.22;;
19814;SDS011;10067;53.092;8.800;2023-07-29T08:54:37;4.25;;;3.63;;
19814;SDS011;10067;53.092;8.800;2023-07-29T08:57:03;5.72;;;4.00;;
19814;SDS011;10067;53.092;8.800;2023-07-29T08:59:29;9.77;;;3.80;;
19814;SDS011;10067;53.092;8.800;2023-07-29T09:01:56;7.18;;;4.20;;
19814;SDS011;10067;53.092;8.800;2023-07-29T09:04:23;5.55;;;4.13;;
19814;SDS011;10067;53.092;8.800;2023-07-29T09:06:51;7.65;;;4.00;;
19814;SDS011;10067;53.092;8.800;2023-07-29T09:09:18;5.85;;;3.40;;
19814;SDS011;10067;53.092;8.800;2023-07-29T09:11:45;4.63;;;3.13;;
19814;SDS011;10067;53.092;8.800;2023-07-29T09:14:11;4.60;;;2.80;;
19814;SDS011;10067;53.092;8.800;2023-07-29T09:16:38;5.22;;;2.70;;
19814;SDS011;10067;53.092;8.800;2023-07-29T09:19:04;6.45;;;3.35;;
19814;SDS011;10067;53.092;8.800;2023-07-29T09:21:31;6.65;;;5.45;;
19814;SDS011;10067;53.092;8.800;2023-07-29T09:24:01;7.85;;;6.05;;
19814;SDS011;10067;53.092;8.800;2023-07-29T09:26:28;7.22;;;5.40;;
19814;SDS011;10067;53.092;8.800;2023-07-29T09:28:55;6.25;;;4.65;;
19814;SDS011;10067;53.092;8.800;2023-07-29T09:31:23;6.07;;;4.40;;
19814;SDS011;10067;53.092;8.800;2023-07-29T09:33:50;6.20;;;3.80;;
19814;SDS011;10067;53.092;8.800;2023-07-29T09:36:16;4.15;;;3.03;;
19814;SDS011;10067;53.092;8.800;2023-07-29T09:38:43;5.38;;;2.63;;
19814;SDS011;10067;53.092;8.800;2023-07-29T09:41:12;3.97;;;3.42;;
19814;SDS011;10067;53.092;8.800;2023-07-29T09:43:39;7.07;;;5.78;;
19814;SDS011;10067;53.092;8.800;2023-07-29T09:46:05;2.80;;;2.28;;
19814;SDS011;10067;53.092;8.800;2023-07-29T09:48:33;5.97;;;2.92;;
19814;SDS011;10067;53.092;8.800;2023-07-29T09:51:00;3.47;;;2.45;;
19814;SDS011;10067;53.092;8.800;2023-07-29T09:53:38;4.75;;;2.88;;
19814;SDS011;10067;53.092;8.800;2023-07-29T09:56:05;4.72;;;3.38;;
19814;SDS011;10067;53.092;8.800;2023-07-29T09:58:32;7.70;;;3.92;;
19814;SDS011;10067;53.092;8.800;2023-07-29T10:01:00;5.15;;;4.13;;
19814;SDS011;10067;53.092;8.800;2023-07-29T10:03:26;5.18;;;4.10;;
19814;SDS011;10067;53.092;8.800;2023-07-29T10:05:53;5.97;;;4.85;;
19814;SDS011;10067;53.092;8.800;2023-07-29T10:08:19;6.13;;;3.42;;
19814;SDS011;10067;53.092;8.800;2023-07-29T10:10:46;4.78;;;4.05;;
19814;SDS011;10067;53.092;8.800;2023-07-29T10:13:13;7.30;;;4.53;;
19814;SDS011;10067;53.092;8.800;2023-07-29T10:15:41;7.28;;;4.05;;
19814;SDS011;10067;53.092;8.800;2023-07-29T10:18:08;6.20;;;4.35;;
19814;SDS011;10067;53.092;8.800;2023-07-29T10:20:34;6.03;;;3.63;;
19814;SDS011;10067;53.092;8.800;2023-07-29T10:23:01;4.47;;;3.58;;
19814;SDS011;10067;53.092;8.800;2023-07-29T10:25:32;17.17;;;10.15;;
19814;SDS011;10067;53.092;8.800;2023-07-29T10:28:04;4.82;;;3.15;;
19814;SDS011;10067;53.092;8.800;2023-07-29T10:30:31;3.90;;;3.00;;
19814;SDS011;10067;53.092;8.800;2023-07-29T10:33:01;4.32;;;3.22;;
19814;SDS011;10067;53.092;8.800;2023-07-29T10:35:27;3.67;;;3.00;;
19814;SDS011;10067;53.092;8.800;2023-07-29T10:37:54;3.58;;;3.25;;
19814;SDS011;10067;53.092;8.800;2023-07-29T10:40:21;4.90;;;3.40;;
19814;SDS011;10067;53.092;8.800;2023-07-29T10:43:00;4.05;;;2.70;;
19814;SDS011;10067;53.092;8.800;2023-07-29T10:45:36;3.58;;;3.22;;
19814;SDS011;10067;53.092;8.800;2023-07-29T10:48:06;4.43;;;3.00;;
19814;SDS011;10067;53.092;8.800;2023-07-29T10:50:33;4.00;;;3.35;;
19814;SDS011;10067;53.092;8.800;2023-07-29T10:53:00;8.90;;;6.47;;
19814;SDS011;10067;53.092;8.800;2023-07-29T10:55:27;6.13;;;4.13;;
19814;SDS011;10067;53.092;8.800;2023-07-29T10:58:04;5.00;;;3.65;;
19814;SDS011;10067;53.092;8.800;2023-07-29T11:00:31;4.65;;;2.92;;
19814;SDS011;10067;53.092;8.800;2023-07-29T11:02:58;2.80;;;2.45;;
19814;SDS011;10067;53.092;8.800;2023-07-29T11:05:27;3.35;;;2.30;;
19814;SDS011;10067;53.092;8.800;2023-07-29T11:08:15;3.00;;;2.22;;
19814;SDS011;10067;53.092;8.800;2023-07-29T11:10:42;6.60;;;2.40;;
19814;SDS011;10067;53.092;8.800;2023-07-29T11:13:09;2.63;;;2.10;;
19814;SDS011;10067;53.092;8.800;2023-07-29T11:15:37;3.50;;;2.45;;
19814;SDS011;10067;53.092;8.800;2023-07-29T11:18:05;2.58;;;1.92;;
19814;SDS011;10067;53.092;8.800;2023-07-29T11:20:35;3.00;;;2.30;;
19814;SDS011;10067;53.092;8.800;2023-07-29T11:23:02;4.70;;;2.90;;
19814;SDS011;10067;53.092;8.800;2023-07-29T11:25:29;3.85;;;2.72;;
19814;SDS011;10067;53.092;8.800;2023-07-29T11:27:57;3.45;;;3.15;;
19814;SDS011;10067;53.092;8.800;2023-07-29T11:30:24;3.90;;;3.03;;
19814;SDS011;10067;53.092;8.800;2023-07-29T11:32:51;3.75;;;2.50;;
19814;SDS011;10067;53.092;8.800;2023-07-29T11:35:19;3.78;;;3.40;;
19814;SDS011;10067;53.092;8.800;2023-07-29T11:37:47;6.10;;;3.25;;
19814;SDS011;10067;53.092;8.800;2023-07-29T11:40:14;3.42;;;2.55;;
19814;SDS011;10067;53.092;8.800;2023-07-29T11:42:41;7.28;;;2.65;;
19814;SDS011;10067;53.092;8.800;2023-07-29T11:45:08;4.40;;;3.53;;
19814;SDS011;10067;53.092;8.800;2023-07-29T11:47:35;4.63;;;3.40;;
19814;SDS011;10067;53.092;8.800;2023-07-29T11:50:02;3.55;;;2.50;;
19814;SDS011;10067;53.092;8.800;2023-07-29T11:52:28;5.93;;;2.60;;
19814;SDS011;10067;53.092;8.800;2023-07-29T11:54:56;4.25;;;3.22;;
19814;SDS011;10067;53.092;8.800;2023-07-29T11:57:23;4.35;;;2.58;;
19814;SDS011;10067;53.092;8.800;2023-07-29T11:59:49;5.07;;;3.72;;
19814;SDS011;10067;53.092;8.800;2023-07-29T12:02:16;5.03;;;2.95;;
19814;SDS011;10067;53.092;8.800;2023-07-29T12:04:43;4.50;;;2.83;;
19814;SDS011;10067;53.092;8.800;2023-07-29T12:07:10;3.10;;;2.53;;
19814;SDS011;10067;53.092;8.800;2023-07-29T12:09:38;5.13;;;2.65;;
19814;SDS011;10067;53.092;8.800;2023-07-29T12:12:07;5.43;;;3.50;;
19814;SDS011;10067;53.092;8.800;2023-07-29T12:14:34;4.72;;;3.85;;
19814;SDS011;10067;53.092;8.800;2023-07-29T12:17:00;3.53;;;2.65;;
19814;SDS011;10067;53.092;8.800;2023-07-29T12:19:31;5.47;;;3.28;;
19814;SDS011;10067;53.092;8.800;2023-07-29T12:21:57;5.28;;;2.20;;
19814;SDS011;10067;53.092;8.800;2023-07-29T12:24:24;3.00;;;1.98;;
19814;SDS011;10067;53.092;8.800;2023-07-29T12:26:50;3.72;;;2.38;;
19814;SDS011;10067;53.092;8.800;2023-07-29T12:29:18;3.63;;;2.17;;
19814;SDS011;10067;53.092;8.800;2023-07-29T12:31:45;13.65;;;4.80;;
19814;SDS011;10067;53.092;8.800;2023-07-29T12:34:17;3.35;;;2.15;;
19814;SDS011;10067;53.092;8.800;2023-07-29T12:36:44;3.03;;;2.17;;
19814;SDS011;10067;53.092;8.800;2023-07-29T12:39:20;3.33;;;2.78;;
19814;SDS011;10067;53.092;8.800;2023-07-29T12:41:47;6.10;;;2.50;;
19814;SDS011;10067;53.092;8.800;2023-07-29T12:44:14;2.75;;;2.17;;
19814;SDS011;10067;53.092;8.800;2023-07-29T12:46:42;3.40;;;1.70;;
19814;SDS011;10067;53.092;8.800;2023-07-29T12:49:08;3.25;;;1.58;;
19814;SDS011;10067;53.092;8.800;2023-07-29T12:51:34;4.07;;;2.47;;
19814;SDS011;10067;53.092;8.800;2023-07-29T12:54:01;3.60;;;3.17;;
19814;SDS011;10067;53.092;8.800;2023-07-29T12:56:28;10.95;;;6.55;;
19814;SDS011;10067;53.092;8.800;2023-07-29T12:58:54;7.53;;;3.85;;
19814;SDS011;10067;53.092;8.800;2023-07-29T13:01:21;4.18;;;2.50;;
19814;SDS011;10067;53.092;8.800;2023-07-29T13:03:48;6.15;;;2.85;;
19814;SDS011;10067;53.092;8.800;2023-07-29T13:06:15;2.92;;;2.65;;
19814;SDS011;10067;53.092;8.800;2023-07-29T13:08:41;5.50;;;2.30;;
19814;SDS011;10067;53.092;8.800;2023-07-29T13:11:08;6.65;;;4.38;;
19814;SDS011;10067;53.092;8.800;2023-07-29T13:13:34;4.55;;;2.55;;
19814;SDS011;10067;53.092;8.800;2023-07-29T13:16:01;6.93;;;2.88;;
19814;SDS011;10067;53.092;8.800;2023-07-29T13:18:27;5.10;;;3.60;;
19814;SDS011;10067;53.092;8.800;2023-07-29T13:20:55;2.67;;;2.25;;
19814;SDS011;10067;53.092;8.800;2023-07-29T13:23:22;3.20;;;2.05;;
19814;SDS011;10067;53.092;8.800;2023-07-29T13:25:48;3.95;;;1.80;;
19814;SDS011;10067;53.092;8.800;2023-07-29T13:28:15;3.20;;;1.90;;
19814;SDS011;10067;53.092;8.800;2023-07-29T13:30:41;3.30;;;2.00;;
19814;SDS011;10067;53.092;8.800;2023-07-29T13:33:08;2.80;;;1.80;;
19814;SDS011;10067;53.092;8.800;2023-07-29T13:35:34;4.68;;;2.05;;
19814;SDS011;10067;53.092;8.800;2023-07-29T13:38:02;2.70;;;2.28;;
19814;SDS011;10067;53.092;8.800;2023-07-29T13:40:28;4.22;;;2.70;;
19814;SDS011;10067;53.092;8.800;2023-07-29T13:42:55;3.55;;;2.25;;
19814;SDS011;10067;53.092;8.800;2023-07-29T13:45:21;4.07;;;2.40;;
19814;SDS011;10067;53.092;8.800;2023-07-29T13:47:48;2.88;;;1.67;;
19814;SDS011;10067;53.092;8.800;2023-07-29T13:50:15;3.45;;;1.65;;
19814;SDS011;10067;53.092;8.800;2023-07-29T13:52:41;3.28;;;1.40;;
19814;SDS011;10067;53.092;8.800;2023-07-29T13:55:09;2.40;;;1.65;;
19814;SDS011;10067;53.092;8.800;2023-07-29T13:57:36;3.60;;;2.33;;
19814;SDS011;10067;53.092;8.800;2023-07-29T14:00:04;2.72;;;1.88;;
19814;SDS011;10067;53.092;8.800;2023-07-29T14:02:30;3.35;;;1.80;;
19814;SDS011;10067;53.092;8.800;2023-07-29T14:04:57;4.90;;;2.10;;
19814;SDS011;10067;53.092;8.800;2023-07-29T14:07:23;9.93;;;2.05;;
19814;SDS011;10067;53.092;8.800;2023-07-29T14:09:50;3.88;;;2.17;;
19814;SDS011;10067;53.092;8.800;2023-07-29T14:12:17;3.55;;;2.08;;
19814;SDS011;10067;53.092;8.800;2023-07-29T14:14:44;3.15;;;1.80;;
19814;SDS011;10067;53.092;8.800;2023-07-29T14:17:10;3.97;;;1.50;;
19814;SDS011;10067;53.092;8.800;2023-07-29T14:19:36;3.22;;;2.10;;
19814;SDS011;10067;53.092;8.800;2023-07-29T14:22:03;2.58;;;2.33;;
19814;SDS011;10067;53.092;8.800;2023-07-29T14:24:30;2.38;;;2.10;;
19814;SDS011;10067;53.092;8.800;2023-07-29T14:26:56;5.57;;;2.83;;
19814;SDS011;10067;53.092;8.800;2023-07-29T14:29:24;3.00;;;2.05;;
19814;SDS011;10067;53.092;8.800;2023-07-29T14:31:50;5.50;;;1.70;;